Bert Mooney Airport Butte US
ICAO: KBTM
IATA: BTM
Category: Medium
Scheduled Services: Yes

Elevation: 5550 ft
TransAlt. 18000 ft.

Airport Communications:
ASOS:135.175
SALT LAKE CITY CNTR:132.4
GREAT FALLS RDO:122.2
CTAF/UNICOM:123

KBTM Zoom In..

Runways:

(A) RW 12 length 5100 ft width 75 ft
---- / hdg 113

(B) RW 15 length 9001 ft width 150 ft
ILS 110.90 / hdg 151

(C) RW 30 length 5100 ft width 75 ft
---- / hdg 293

(D) RW 33 length 9001 ft width 150 ft
---- / hdg 331

Location; KBTM
Day. 21 / Time. 14.06 Zulu
* Altimeter: 30.02
* Temperature: 09° c. 48.2°f.
* Wind from: 000° Speed 00 kn.
Dewpoint: 07° c.
Visibility: 10 Statute Miles.
Clouds: Scattered 800 ft.

KBTM 211406Z AUTO 00000KT 10SM SCT008 09/07 A3002 RMK AO2 T00940067


Wind - Calm.

 
 
jpsmedia.com for Web Design SOUNDCLOUD worldairports.se 2018   terms of use